sensor_id;sensor_type;location;lat;lon;timestamp;P1;durP1;ratioP1;P2;durP2;ratioP2
18286;SDS011;9269;50.838;12.094;2023-08-30T00:01:17;5.30;;;4.90;;
18286;SDS011;9269;50.838;12.094;2023-08-30T00:03:46;5.13;;;4.73;;
18286;SDS011;9269;50.838;12.094;2023-08-30T00:06:17;5.10;;;4.70;;
18286;SDS011;9269;50.838;12.094;2023-08-30T00:08:45;5.37;;;4.90;;
18286;SDS011;9269;50.838;12.094;2023-08-30T00:11:15;4.73;;;4.43;;
18286;SDS011;9269;50.838;12.094;2023-08-30T00:13:44;4.87;;;4.50;;
18286;SDS011;9269;50.838;12.094;2023-08-30T00:16:15;6.33;;;5.80;;
18286;SDS011;9269;50.838;12.094;2023-08-30T00:18:44;5.47;;;4.97;;
18286;SDS011;9269;50.838;12.094;2023-08-30T00:21:13;6.13;;;5.60;;
18286;SDS011;9269;50.838;12.094;2023-08-30T00:23:45;5.80;;;5.20;;
18286;SDS011;9269;50.838;12.094;2023-08-30T00:26:13;5.40;;;4.90;;
18286;SDS011;9269;50.838;12.094;2023-08-30T00:28:41;5.77;;;5.33;;
18286;SDS011;9269;50.838;12.094;2023-08-30T00:31:10;5.57;;;5.17;;
18286;SDS011;9269;50.838;12.094;2023-08-30T00:33:39;5.20;;;4.80;;
18286;SDS011;9269;50.838;12.094;2023-08-30T00:36:08;5.83;;;5.37;;
18286;SDS011;9269;50.838;12.094;2023-08-30T00:38:37;6.27;;;5.67;;
18286;SDS011;9269;50.838;12.094;2023-08-30T00:41:07;5.80;;;5.40;;
18286;SDS011;9269;50.838;12.094;2023-08-30T00:43:35;7.07;;;6.37;;
18286;SDS011;9269;50.838;12.094;2023-08-30T00:46:04;5.80;;;5.30;;
18286;SDS011;9269;50.838;12.094;2023-08-30T00:48:33;5.83;;;5.30;;
18286;SDS011;9269;50.838;12.094;2023-08-30T00:51:01;5.23;;;4.73;;
18286;SDS011;9269;50.838;12.094;2023-08-30T00:53:30;5.67;;;5.17;;
18286;SDS011;9269;50.838;12.094;2023-08-30T00:56:01;6.30;;;5.37;;
18286;SDS011;9269;50.838;12.094;2023-08-30T00:58:31;5.30;;;4.80;;
18286;SDS011;9269;50.838;12.094;2023-08-30T01:01:00;5.77;;;5.27;;
18286;SDS011;9269;50.838;12.094;2023-08-30T01:03:29;5.93;;;5.33;;
18286;SDS011;9269;50.838;12.094;2023-08-30T01:05:58;6.13;;;5.63;;
18286;SDS011;9269;50.838;12.094;2023-08-30T01:08:27;5.80;;;5.30;;
18286;SDS011;9269;50.838;12.094;2023-08-30T01:10:59;7.20;;;5.73;;
18286;SDS011;9269;50.838;12.094;2023-08-30T01:13:32;6.10;;;5.60;;
18286;SDS011;9269;50.838;12.094;2023-08-30T01:16:07;5.67;;;5.17;;
18286;SDS011;9269;50.838;12.094;2023-08-30T01:18:36;4.97;;;4.57;;
18286;SDS011;9269;50.838;12.094;2023-08-30T01:33:39;5.93;;;5.43;;
18286;SDS011;9269;50.838;12.094;2023-08-30T01:36:08;6.20;;;5.60;;
18286;SDS011;9269;50.838;12.094;2023-08-30T01:38:37;6.23;;;5.77;;
18286;SDS011;9269;50.838;12.094;2023-08-30T01:41:07;6.03;;;5.53;;
18286;SDS011;9269;50.838;12.094;2023-08-30T01:43:36;5.77;;;5.17;;
18286;SDS011;9269;50.838;12.094;2023-08-30T01:46:05;7.03;;;5.50;;
18286;SDS011;9269;50.838;12.094;2023-08-30T01:48:34;5.57;;;5.17;;
18286;SDS011;9269;50.838;12.094;2023-08-30T01:51:05;5.43;;;5.00;;
18286;SDS011;9269;50.838;12.094;2023-08-30T01:53:36;5.50;;;5.00;;
18286;SDS011;9269;50.838;12.094;2023-08-30T01:56:05;5.90;;;5.50;;
18286;SDS011;9269;50.838;12.094;2023-08-30T01:58:33;6.90;;;5.73;;
18286;SDS011;9269;50.838;12.094;2023-08-30T02:01:04;5.97;;;5.47;;
18286;SDS011;9269;50.838;12.094;2023-08-30T02:03:33;7.33;;;6.30;;
18286;SDS011;9269;50.838;12.094;2023-08-30T02:06:03;6.50;;;5.90;;
18286;SDS011;9269;50.838;12.094;2023-08-30T02:08:38;6.00;;;5.40;;
18286;SDS011;9269;50.838;12.094;2023-08-30T02:11:11;6.13;;;5.60;;
18286;SDS011;9269;50.838;12.094;2023-08-30T02:13:42;5.87;;;5.33;;
18286;SDS011;9269;50.838;12.094;2023-08-30T02:16:12;6.53;;;5.93;;
18286;SDS011;9269;50.838;12.094;2023-08-30T02:18:42;6.10;;;5.60;;
18286;SDS011;9269;50.838;12.094;2023-08-30T02:21:12;6.00;;;5.40;;
18286;SDS011;9269;50.838;12.094;2023-08-30T02:23:41;7.07;;;5.50;;
18286;SDS011;9269;50.838;12.094;2023-08-30T02:26:09;6.47;;;5.30;;
18286;SDS011;9269;50.838;12.094;2023-08-30T02:28:38;6.17;;;5.63;;
18286;SDS011;9269;50.838;12.094;2023-08-30T02:31:06;5.43;;;5.03;;
18286;SDS011;9269;50.838;12.094;2023-08-30T02:33:35;6.33;;;5.27;;
18286;SDS011;9269;50.838;12.094;2023-08-30T02:36:04;5.73;;;4.83;;
18286;SDS011;9269;50.838;12.094;2023-08-30T02:38:34;4.67;;;4.27;;
18286;SDS011;9269;50.838;12.094;2023-08-30T02:41:03;5.10;;;4.60;;
18286;SDS011;9269;50.838;12.094;2023-08-30T02:43:31;5.17;;;4.60;;
18286;SDS011;9269;50.838;12.094;2023-08-30T02:46:00;4.53;;;4.07;;
18286;SDS011;9269;50.838;12.094;2023-08-30T02:48:30;4.93;;;4.53;;
18286;SDS011;9269;50.838;12.094;2023-08-30T02:51:00;4.57;;;4.23;;
18286;SDS011;9269;50.838;12.094;2023-08-30T02:53:29;4.90;;;4.00;;
18286;SDS011;9269;50.838;12.094;2023-08-30T02:55:58;4.20;;;3.90;;
18286;SDS011;9269;50.838;12.094;2023-08-30T02:58:27;5.23;;;4.63;;
18286;SDS011;9269;50.838;12.094;2023-08-30T03:01:00;4.33;;;3.93;;
18286;SDS011;9269;50.838;12.094;2023-08-30T03:03:30;4.67;;;3.70;;
18286;SDS011;9269;50.838;12.094;2023-08-30T03:05:58;5.73;;;3.80;;
18286;SDS011;9269;50.838;12.094;2023-08-30T03:08:27;5.80;;;3.80;;
18286;SDS011;9269;50.838;12.094;2023-08-30T03:10:56;4.07;;;3.70;;
18286;SDS011;9269;50.838;12.094;2023-08-30T03:13:36;3.70;;;3.40;;
18286;SDS011;9269;50.838;12.094;2023-08-30T03:16:09;3.93;;;3.53;;
18286;SDS011;9269;50.838;12.094;2023-08-30T03:18:39;3.90;;;3.60;;
18286;SDS011;9269;50.838;12.094;2023-08-30T03:21:09;4.03;;;3.27;;
18286;SDS011;9269;50.838;12.094;2023-08-30T03:23:38;4.43;;;4.03;;
18286;SDS011;9269;50.838;12.094;2023-08-30T03:26:07;4.87;;;3.93;;
18286;SDS011;9269;50.838;12.094;2023-08-30T03:28:38;4.63;;;3.53;;
18286;SDS011;9269;50.838;12.094;2023-08-30T03:31:11;4.07;;;3.77;;
18286;SDS011;9269;50.838;12.094;2023-08-30T03:33:40;4.40;;;3.97;;
18286;SDS011;9269;50.838;12.094;2023-08-30T03:36:11;3.97;;;3.67;;
18286;SDS011;9269;50.838;12.094;2023-08-30T03:38:41;4.03;;;3.73;;
18286;SDS011;9269;50.838;12.094;2023-08-30T03:41:10;4.20;;;3.80;;
18286;SDS011;9269;50.838;12.094;2023-08-30T03:43:41;4.93;;;3.53;;
18286;SDS011;9269;50.838;12.094;2023-08-30T03:46:09;4.00;;;3.70;;
18286;SDS011;9269;50.838;12.094;2023-08-30T03:48:39;4.57;;;4.17;;
18286;SDS011;9269;50.838;12.094;2023-08-30T03:51:07;4.57;;;4.13;;
18286;SDS011;9269;50.838;12.094;2023-08-30T03:53:36;4.37;;;4.07;;
18286;SDS011;9269;50.838;12.094;2023-08-30T03:56:05;4.77;;;4.37;;
18286;SDS011;9269;50.838;12.094;2023-08-30T03:58:34;4.90;;;4.40;;
18286;SDS011;9269;50.838;12.094;2023-08-30T04:01:06;4.63;;;4.23;;
18286;SDS011;9269;50.838;12.094;2023-08-30T04:03:35;4.63;;;4.23;;
18286;SDS011;9269;50.838;12.094;2023-08-30T04:06:04;5.37;;;4.87;;
18286;SDS011;9269;50.838;12.094;2023-08-30T04:08:32;5.33;;;4.73;;
18286;SDS011;9269;50.838;12.094;2023-08-30T04:11:01;5.27;;;4.83;;
18286;SDS011;9269;50.838;12.094;2023-08-30T04:13:30;4.93;;;4.50;;
18286;SDS011;9269;50.838;12.094;2023-08-30T04:15:59;5.10;;;4.60;;
18286;SDS011;9269;50.838;12.094;2023-08-30T04:18:29;4.70;;;4.30;;
18286;SDS011;9269;50.838;12.094;2023-08-30T04:20:58;5.00;;;4.20;;
18286;SDS011;9269;50.838;12.094;2023-08-30T04:23:29;4.70;;;4.30;;
18286;SDS011;9269;50.838;12.094;2023-08-30T04:25:57;5.13;;;4.63;;
18286;SDS011;9269;50.838;12.094;2023-08-30T04:28:26;4.93;;;4.33;;
18286;SDS011;9269;50.838;12.094;2023-08-30T04:30:54;4.80;;;4.40;;
18286;SDS011;9269;50.838;12.094;2023-08-30T04:33:23;4.97;;;4.50;;
18286;SDS011;9269;50.838;12.094;2023-08-30T04:35:56;4.57;;;4.27;;
18286;SDS011;9269;50.838;12.094;2023-08-30T04:38:28;5.00;;;4.37;;
18286;SDS011;9269;50.838;12.094;2023-08-30T04:40:56;4.17;;;3.87;;
18286;SDS011;9269;50.838;12.094;2023-08-30T04:43:26;4.13;;;3.73;;
18286;SDS011;9269;50.838;12.094;2023-08-30T04:45:55;5.37;;;4.83;;
18286;SDS011;9269;50.838;12.094;2023-08-30T04:48:24;4.87;;;4.47;;
18286;SDS011;9269;50.838;12.094;2023-08-30T04:51:05;4.17;;;3.87;;
18286;SDS011;9269;50.838;12.094;2023-08-30T04:53:33;4.27;;;3.97;;
18286;SDS011;9269;50.838;12.094;2023-08-30T04:56:09;4.40;;;4.10;;
18286;SDS011;9269;50.838;12.094;2023-08-30T04:58:39;5.20;;;4.80;;
18286;SDS011;9269;50.838;12.094;2023-08-30T05:01:08;5.20;;;4.30;;
18286;SDS011;9269;50.838;12.094;2023-08-30T05:03:38;5.57;;;4.23;;
18286;SDS011;9269;50.838;12.094;2023-08-30T05:06:09;4.93;;;4.53;;
18286;SDS011;9269;50.838;12.094;2023-08-30T05:08:41;5.90;;;4.90;;
18286;SDS011;9269;50.838;12.094;2023-08-30T05:11:13;5.73;;;5.03;;
18286;SDS011;9269;50.838;12.094;2023-08-30T05:13:42;5.57;;;4.87;;
18286;SDS011;9269;50.838;12.094;2023-08-30T05:16:11;6.90;;;5.43;;
18286;SDS011;9269;50.838;12.094;2023-08-30T05:18:40;6.57;;;5.07;;
18286;SDS011;9269;50.838;12.094;2023-08-30T05:21:11;5.30;;;4.80;;
18286;SDS011;9269;50.838;12.094;2023-08-30T05:23:40;5.10;;;4.70;;
18286;SDS011;9269;50.838;12.094;2023-08-30T05:26:10;5.63;;;5.13;;
18286;SDS011;9269;50.838;12.094;2023-08-30T05:28:44;7.37;;;5.20;;
18286;SDS011;9269;50.838;12.094;2023-08-30T05:31:13;5.80;;;5.20;;
18286;SDS011;9269;50.838;12.094;2023-08-30T05:33:41;6.43;;;5.57;;
18286;SDS011;9269;50.838;12.094;2023-08-30T05:36:11;5.30;;;4.80;;
18286;SDS011;9269;50.838;12.094;2023-08-30T05:38:41;5.30;;;4.80;;
18286;SDS011;9269;50.838;12.094;2023-08-30T05:41:10;5.03;;;4.57;;
18286;SDS011;9269;50.838;12.094;2023-08-30T05:43:38;6.17;;;5.33;;
18286;SDS011;9269;50.838;12.094;2023-08-30T05:46:06;7.53;;;5.87;;
18286;SDS011;9269;50.838;12.094;2023-08-30T05:48:44;6.97;;;5.60;;
18286;SDS011;9269;50.838;12.094;2023-08-30T05:51:14;6.30;;;5.70;;
18286;SDS011;9269;50.838;12.094;2023-08-30T05:53:43;6.57;;;5.77;;
18286;SDS011;9269;50.838;12.094;2023-08-30T05:56:13;6.50;;;5.43;;
18286;SDS011;9269;50.838;12.094;2023-08-30T05:58:42;6.13;;;5.53;;
18286;SDS011;9269;50.838;12.094;2023-08-30T06:01:10;7.47;;;6.17;;
18286;SDS011;9269;50.838;12.094;2023-08-30T06:03:40;7.63;;;6.30;;
18286;SDS011;9269;50.838;12.094;2023-08-30T06:06:08;6.10;;;5.40;;
18286;SDS011;9269;50.838;12.094;2023-08-30T06:08:39;5.63;;;5.13;;
18286;SDS011;9269;50.838;12.094;2023-08-30T06:11:08;6.10;;;5.43;;
18286;SDS011;9269;50.838;12.094;2023-08-30T06:13:36;6.93;;;5.37;;
18286;SDS011;9269;50.838;12.094;2023-08-30T06:16:05;5.43;;;4.93;;
18286;SDS011;9269;50.838;12.094;2023-08-30T06:18:34;9.53;;;5.00;;
18286;SDS011;9269;50.838;12.094;2023-08-30T06:21:20;4.70;;;4.40;;
18286;SDS011;9269;50.838;12.094;2023-08-30T06:23:50;6.53;;;4.83;;
18286;SDS011;9269;50.838;12.094;2023-08-30T06:26:20;4.87;;;4.47;;
18286;SDS011;9269;50.838;12.094;2023-08-30T06:28:49;4.97;;;4.17;;
18286;SDS011;9269;50.838;12.094;2023-08-30T06:31:35;6.03;;;5.23;;
18286;SDS011;9269;50.838;12.094;2023-08-30T06:34:04;6.07;;;4.93;;
18286;SDS011;9269;50.838;12.094;2023-08-30T06:36:32;5.73;;;4.80;;
18286;SDS011;9269;50.838;12.094;2023-08-30T06:39:02;6.27;;;5.67;;
18286;SDS011;9269;50.838;12.094;2023-08-30T06:41:32;5.30;;;4.90;;
18286;SDS011;9269;50.838;12.094;2023-08-30T06:44:01;5.83;;;5.20;;
18286;SDS011;9269;50.838;12.094;2023-08-30T06:46:31;6.10;;;5.03;;
18286;SDS011;9269;50.838;12.094;2023-08-30T06:49:01;5.27;;;4.77;;
18286;SDS011;9269;50.838;12.094;2023-08-30T06:51:30;5.80;;;4.63;;
18286;SDS011;9269;50.838;12.094;2023-08-30T06:53:58;5.17;;;4.70;;
18286;SDS011;9269;50.838;12.094;2023-08-30T06:56:31;6.63;;;5.00;;
18286;SDS011;9269;50.838;12.094;2023-08-30T06:59:00;4.80;;;4.30;;
18286;SDS011;9269;50.838;12.094;2023-08-30T07:01:29;5.23;;;4.47;;
18286;SDS011;9269;50.838;12.094;2023-08-30T07:04:13;7.70;;;5.40;;
18286;SDS011;9269;50.838;12.094;2023-08-30T07:06:43;5.10;;;4.60;;
18286;SDS011;9269;50.838;12.094;2023-08-30T07:09:12;7.57;;;6.07;;
18286;SDS011;9269;50.838;12.094;2023-08-30T07:11:43;5.87;;;4.50;;
18286;SDS011;9269;50.838;12.094;2023-08-30T07:14:12;6.43;;;4.73;;
18286;SDS011;9269;50.838;12.094;2023-08-30T07:16:41;5.37;;;4.53;;
18286;SDS011;9269;50.838;12.094;2023-08-30T07:19:10;5.67;;;4.63;;
18286;SDS011;9269;50.838;12.094;2023-08-30T07:21:41;4.90;;;4.40;;
18286;SDS011;9269;50.838;12.094;2023-08-30T07:24:11;5.97;;;4.80;;
18286;SDS011;9269;50.838;12.094;2023-08-30T07:26:40;4.83;;;4.23;;
18286;SDS011;9269;50.838;12.094;2023-08-30T07:29:11;5.27;;;4.47;;
18286;SDS011;9269;50.838;12.094;2023-08-30T07:31:40;6.10;;;4.40;;
18286;SDS011;9269;50.838;12.094;2023-08-30T07:34:25;3.73;;;3.40;;
18286;SDS011;9269;50.838;12.094;2023-08-30T07:36:55;5.07;;;3.57;;
18286;SDS011;9269;50.838;12.094;2023-08-30T07:39:24;6.57;;;4.13;;
18286;SDS011;9269;50.838;12.094;2023-08-30T07:41:58;5.87;;;4.47;;
18286;SDS011;9269;50.838;12.094;2023-08-30T07:44:26;5.20;;;4.70;;
18286;SDS011;9269;50.838;12.094;2023-08-30T07:46:55;3.97;;;3.67;;
18286;SDS011;9269;50.838;12.094;2023-08-30T07:49:24;4.17;;;3.73;;
18286;SDS011;9269;50.838;12.094;2023-08-30T07:51:52;4.50;;;4.17;;
18286;SDS011;9269;50.838;12.094;2023-08-30T07:54:21;5.00;;;4.50;;
18286;SDS011;9269;50.838;12.094;2023-08-30T07:56:51;5.70;;;3.80;;
18286;SDS011;9269;50.838;12.094;2023-08-30T07:59:22;4.80;;;4.03;;
18286;SDS011;9269;50.838;12.094;2023-08-30T08:01:51;4.17;;;3.60;;
18286;SDS011;9269;50.838;12.094;2023-08-30T08:04:22;8.93;;;4.33;;
18286;SDS011;9269;50.838;12.094;2023-08-30T08:06:51;4.20;;;3.60;;
18286;SDS011;9269;50.838;12.094;2023-08-30T08:09:25;4.33;;;3.83;;
18286;SDS011;9269;50.838;12.094;2023-08-30T08:11:58;4.30;;;3.80;;
18286;SDS011;9269;50.838;12.094;2023-08-30T08:14:30;4.10;;;3.70;;
18286;SDS011;9269;50.838;12.094;2023-08-30T08:17:00;3.63;;;3.33;;
18286;SDS011;9269;50.838;12.094;2023-08-30T08:19:28;5.07;;;3.63;;
18286;SDS011;9269;50.838;12.094;2023-08-30T08:21:58;4.73;;;3.53;;
18286;SDS011;9269;50.838;12.094;2023-08-30T08:24:36;3.57;;;3.23;;
18286;SDS011;9269;50.838;12.094;2023-08-30T08:27:04;5.03;;;3.23;;
18286;SDS011;9269;50.838;12.094;2023-08-30T08:29:34;3.57;;;3.27;;
18286;SDS011;9269;50.838;12.094;2023-08-30T08:32:03;3.63;;;3.10;;
18286;SDS011;9269;50.838;12.094;2023-08-30T08:34:33;2.73;;;2.57;;
18286;SDS011;9269;50.838;12.094;2023-08-30T08:37:01;3.17;;;2.90;;
18286;SDS011;9269;50.838;12.094;2023-08-30T08:39:30;3.07;;;2.87;;
18286;SDS011;9269;50.838;12.094;2023-08-30T08:41:59;3.13;;;2.93;;
18286;SDS011;9269;50.838;12.094;2023-08-30T08:44:29;3.43;;;3.13;;
18286;SDS011;9269;50.838;12.094;2023-08-30T08:47:01;4.03;;;3.00;;
18286;SDS011;9269;50.838;12.094;2023-08-30T08:49:29;3.73;;;2.90;;
18286;SDS011;9269;50.838;12.094;2023-08-30T08:51:58;2.60;;;2.30;;
18286;SDS011;9269;50.838;12.094;2023-08-30T08:54:35;2.90;;;2.43;;
18286;SDS011;9269;50.838;12.094;2023-08-30T08:57:04;3.70;;;2.63;;
18286;SDS011;9269;50.838;12.094;2023-08-30T08:59:35;2.47;;;2.23;;
18286;SDS011;9269;50.838;12.094;2023-08-30T09:02:13;3.20;;;2.57;;
18286;SDS011;9269;50.838;12.094;2023-08-30T09:04:43;3.13;;;2.83;;
18286;SDS011;9269;50.838;12.094;2023-08-30T09:07:12;2.30;;;2.13;;
18286;SDS011;9269;50.838;12.094;2023-08-30T09:09:41;2.67;;;2.47;;
18286;SDS011;9269;50.838;12.094;2023-08-30T09:12:10;2.30;;;2.10;;
18286;SDS011;9269;50.838;12.094;2023-08-30T09:14:39;4.43;;;3.67;;
18286;SDS011;9269;50.838;12.094;2023-08-30T09:17:07;3.10;;;2.43;;
18286;SDS011;9269;50.838;12.094;2023-08-30T09:19:37;2.27;;;1.97;;
18286;SDS011;9269;50.838;12.094;2023-08-30T09:22:06;2.93;;;2.17;;
18286;SDS011;9269;50.838;12.094;2023-08-30T09:24:38;2.63;;;2.10;;
18286;SDS011;9269;50.838;12.094;2023-08-30T09:27:07;2.10;;;1.90;;
18286;SDS011;9269;50.838;12.094;2023-08-30T09:29:35;1.77;;;1.67;;
18286;SDS011;9269;50.838;12.094;2023-08-30T09:32:04;2.00;;;1.90;;
18286;SDS011;9269;50.838;12.094;2023-08-30T09:34:36;1.70;;;1.60;;
18286;SDS011;9269;50.838;12.094;2023-08-30T09:37:20;2.43;;;1.90;;
18286;SDS011;9269;50.838;12.094;2023-08-30T09:39:49;1.80;;;1.70;;
18286;SDS011;9269;50.838;12.094;2023-08-30T09:42:18;2.03;;;1.80;;
18286;SDS011;9269;50.838;12.094;2023-08-30T09:44:47;1.60;;;1.50;;
18286;SDS011;9269;50.838;12.094;2023-08-30T09:47:17;1.67;;;1.57;;
18286;SDS011;9269;50.838;12.094;2023-08-30T09:49:48;1.90;;;1.80;;
18286;SDS011;9269;50.838;12.094;2023-08-30T09:52:23;1.73;;;1.63;;
18286;SDS011;9269;50.838;12.094;2023-08-30T09:54:53;1.83;;;1.60;;
18286;SDS011;9269;50.838;12.094;2023-08-30T09:57:25;2.40;;;1.63;;
18286;SDS011;9269;50.838;12.094;2023-08-30T09:59:55;2.20;;;1.50;;
18286;SDS011;9269;50.838;12.094;2023-08-30T10:02:24;1.63;;;1.53;;
18286;SDS011;9269;50.838;12.094;2023-08-30T10:04:55;1.60;;;1.50;;
18286;SDS011;9269;50.838;12.094;2023-08-30T10:07:25;1.87;;;1.57;;
18286;SDS011;9269;50.838;12.094;2023-08-30T10:10:05;1.40;;;1.40;;
18286;SDS011;9269;50.838;12.094;2023-08-30T10:12:54;1.67;;;1.57;;
18286;SDS011;9269;50.838;12.094;2023-08-30T10:15:37;1.97;;;1.77;;
18286;SDS011;9269;50.838;12.094;2023-08-30T10:18:11;1.70;;;1.60;;
18286;SDS011;9269;50.838;12.094;2023-08-30T10:20:48;1.60;;;1.50;;
18286;SDS011;9269;50.838;12.094;2023-08-30T10:23:22;1.50;;;1.30;;
18286;SDS011;9269;50.838;12.094;2023-08-30T10:25:52;1.60;;;1.50;;
18286;SDS011;9269;50.838;12.094;2023-08-30T10:28:22;1.53;;;1.40;;
18286;SDS011;9269;50.838;12.094;2023-08-30T10:30:52;1.40;;;1.30;;
18286;SDS011;9269;50.838;12.094;2023-08-30T10:33:21;1.50;;;1.40;;
18286;SDS011;9269;50.838;12.094;2023-08-30T10:36:02;1.30;;;1.20;;
18286;SDS011;9269;50.838;12.094;2023-08-30T10:38:32;1.40;;;1.30;;
18286;SDS011;9269;50.838;12.094;2023-08-30T10:41:08;1.73;;;1.30;;
18286;SDS011;9269;50.838;12.094;2023-08-30T10:43:36;1.50;;;1.40;;
18286;SDS011;9269;50.838;12.094;2023-08-30T10:46:05;1.50;;;1.40;;
18286;SDS011;9269;50.838;12.094;2023-08-30T10:48:35;1.40;;;1.30;;
18286;SDS011;9269;50.838;12.094;2023-08-30T10:51:19;1.20;;;1.10;;
18286;SDS011;9269;50.838;12.094;2023-08-30T10:53:56;1.87;;;1.50;;
18286;SDS011;9269;50.838;12.094;2023-08-30T10:56:27;1.97;;;1.47;;
18286;SDS011;9269;50.838;12.094;2023-08-30T10:58:57;1.40;;;1.30;;
18286;SDS011;9269;50.838;12.094;2023-08-30T11:01:25;2.63;;;1.40;;
18286;SDS011;9269;50.838;12.094;2023-08-30T11:03:55;1.70;;;1.50;;
18286;SDS011;9269;50.838;12.094;2023-08-30T11:06:44;1.00;;;1.00;;
18286;SDS011;9269;50.838;12.094;2023-08-30T11:09:15;2.13;;;1.33;;
18286;SDS011;9269;50.838;12.094;2023-08-30T11:11:45;1.77;;;1.43;;
18286;SDS011;9269;50.838;12.094;2023-08-30T11:14:14;1.30;;;1.20;;
18286;SDS011;9269;50.838;12.094;2023-08-30T11:16:44;2.03;;;1.30;;
18286;SDS011;9269;50.838;12.094;2023-08-30T11:19:15;1.70;;;1.60;;
18286;SDS011;9269;50.838;12.094;2023-08-30T11:21:47;1.40;;;1.30;;
18286;SDS011;9269;50.838;12.094;2023-08-30T11:24:36;1.40;;;1.30;;
18286;SDS011;9269;50.838;12.094;2023-08-30T11:27:05;1.37;;;1.27;;
18286;SDS011;9269;50.838;12.094;2023-08-30T11:29:36;2.00;;;1.53;;
18286;SDS011;9269;50.838;12.094;2023-08-30T11:32:08;1.50;;;1.33;;
18286;SDS011;9269;50.838;12.094;2023-08-30T11:34:40;1.50;;;1.40;;
18286;SDS011;9269;50.838;12.094;2023-08-30T11:37:10;1.40;;;1.30;;
18286;SDS011;9269;50.838;12.094;2023-08-30T11:39:39;1.30;;;1.20;;
18286;SDS011;9269;50.838;12.094;2023-08-30T11:42:08;1.60;;;1.40;;
18286;SDS011;9269;50.838;12.094;2023-08-30T11:44:45;1.30;;;1.20;;
18286;SDS011;9269;50.838;12.094;2023-08-30T11:47:17;1.40;;;1.30;;
18286;SDS011;9269;50.838;12.094;2023-08-30T11:49:47;1.37;;;1.27;;
18286;SDS011;9269;50.838;12.094;2023-08-30T11:52:18;1.20;;;1.20;;
18286;SDS011;9269;50.838;12.094;2023-08-30T11:54:48;1.70;;;1.60;;
18286;SDS011;9269;50.838;12.094;2023-08-30T11:57:17;2.77;;;1.50;;
18286;SDS011;9269;50.838;12.094;2023-08-30T11:59:47;2.73;;;1.63;;
18286;SDS011;9269;50.838;12.094;2023-08-30T12:02:17;2.60;;;1.43;;
18286;SDS011;9269;50.838;12.094;2023-08-30T12:04:48;1.10;;;1.10;;
18286;SDS011;9269;50.838;12.094;2023-08-30T12:07:41;1.40;;;1.30;;
18286;SDS011;9269;50.838;12.094;2023-08-30T12:10:10;1.30;;;1.20;;
18286;SDS011;9269;50.838;12.094;2023-08-30T12:12:43;1.80;;;1.70;;
18286;SDS011;9269;50.838;12.094;2023-08-30T12:15:13;2.00;;;1.40;;
18286;SDS011;9269;50.838;12.094;2023-08-30T12:17:42;2.10;;;1.30;;
18286;SDS011;9269;50.838;12.094;2023-08-30T12:20:14;1.50;;;1.40;;
18286;SDS011;9269;50.838;12.094;2023-08-30T12:22:45;3.47;;;1.70;;
18286;SDS011;9269;50.838;12.094;2023-08-30T12:25:18;1.40;;;1.20;;
18286;SDS011;9269;50.838;12.094;2023-08-30T12:27:49;1.67;;;1.40;;
18286;SDS011;9269;50.838;12.094;2023-08-30T12:30:20;1.47;;;1.37;;
18286;SDS011;9269;50.838;12.094;2023-08-30T12:32:48;1.40;;;1.30;;
18286;SDS011;9269;50.838;12.094;2023-08-30T12:35:17;1.60;;;1.50;;
18286;SDS011;9269;50.838;12.094;2023-08-30T12:37:48;1.60;;;1.50;;
18286;SDS011;9269;50.838;12.094;2023-08-30T12:40:16;1.77;;;1.67;;
18286;SDS011;9269;50.838;12.094;2023-08-30T12:42:53;1.67;;;1.57;;
18286;SDS011;9269;50.838;12.094;2023-08-30T12:45:22;1.43;;;1.33;;
18286;SDS011;9269;50.838;12.094;2023-08-30T12:47:53;1.57;;;1.47;;
18286;SDS011;9269;50.838;12.094;2023-08-30T12:50:22;1.60;;;1.50;;
18286;SDS011;9269;50.838;12.094;2023-08-30T12:53:06;1.60;;;1.50;;
18286;SDS011;9269;50.838;12.094;2023-08-30T12:55:37;1.97;;;1.70;;
18286;SDS011;9269;50.838;12.094;2023-08-30T12:58:07;1.77;;;1.67;;
18286;SDS011;9269;50.838;12.094;2023-08-30T13:00:37;2.30;;;2.10;;
18286;SDS011;9269;50.838;12.094;2023-08-30T13:03:10;2.40;;;1.70;;
18286;SDS011;9269;50.838;12.094;2023-08-30T13:05:39;2.87;;;1.70;;
18286;SDS011;9269;50.838;12.094;2023-08-30T13:08:14;1.80;;;1.70;;
18286;SDS011;9269;50.838;12.094;2023-08-30T13:10:43;2.13;;;1.97;;
18286;SDS011;9269;50.838;12.094;2023-08-30T13:13:12;2.17;;;1.97;;
18286;SDS011;9269;50.838;12.094;2023-08-30T13:15:43;1.80;;;1.70;;
18286;SDS011;9269;50.838;12.094;2023-08-30T13:18:14;2.53;;;2.00;;
18286;SDS011;9269;50.838;12.094;2023-08-30T13:20:44;2.53;;;1.83;;
18286;SDS011;9269;50.838;12.094;2023-08-30T13:23:14;1.90;;;1.70;;
18286;SDS011;9269;50.838;12.094;2023-08-30T13:25:43;1.60;;;1.50;;
18286;SDS011;9269;50.838;12.094;2023-08-30T13:28:11;2.60;;;2.40;;
18286;SDS011;9269;50.838;12.094;2023-08-30T13:30:43;2.60;;;2.40;;
18286;SDS011;9269;50.838;12.094;2023-08-30T13:33:12;2.43;;;2.00;;
18286;SDS011;9269;50.838;12.094;2023-08-30T13:35:41;3.10;;;2.90;;
18286;SDS011;9269;50.838;12.094;2023-08-30T13:38:10;1.90;;;1.80;;
18286;SDS011;9269;50.838;12.094;2023-08-30T13:40:40;4.30;;;2.60;;
18286;SDS011;9269;50.838;12.094;2023-08-30T13:43:10;2.30;;;2.20;;
18286;SDS011;9269;50.838;12.094;2023-08-30T13:45:42;2.40;;;2.27;;
18286;SDS011;9269;50.838;12.094;2023-08-30T13:48:14;2.30;;;2.07;;
18286;SDS011;9269;50.838;12.094;2023-08-30T13:50:45;3.30;;;3.00;;
18286;SDS011;9269;50.838;12.094;2023-08-30T13:53:15;2.57;;;2.37;;
18286;SDS011;9269;50.838;12.094;2023-08-30T13:55:46;2.23;;;2.03;;
18286;SDS011;9269;50.838;12.094;2023-08-30T13:58:15;2.83;;;2.40;;
18286;SDS011;9269;50.838;12.094;2023-08-30T14:00:44;2.30;;;2.13;;
18286;SDS011;9269;50.838;12.094;2023-08-30T14:03:13;2.17;;;2.07;;
18286;SDS011;9269;50.838;12.094;2023-08-30T14:05:43;2.50;;;2.30;;
18286;SDS011;9269;50.838;12.094;2023-08-30T14:08:12;2.23;;;2.13;;
18286;SDS011;9269;50.838;12.094;2023-08-30T14:10:41;2.40;;;2.20;;
18286;SDS011;9269;50.838;12.094;2023-08-30T14:13:11;2.60;;;2.40;;
18286;SDS011;9269;50.838;12.094;2023-08-30T14:15:41;2.13;;;2.03;;
18286;SDS011;9269;50.838;12.094;2023-08-30T14:18:10;2.00;;;1.90;;
18286;SDS011;9269;50.838;12.094;2023-08-30T14:20:41;2.00;;;1.90;;
18286;SDS011;9269;50.838;12.094;2023-08-30T14:23:10;2.40;;;2.20;;
18286;SDS011;9269;50.838;12.094;2023-08-30T14:25:41;3.17;;;2.70;;
18286;SDS011;9269;50.838;12.094;2023-08-30T14:28:11;2.47;;;2.27;;
18286;SDS011;9269;50.838;12.094;2023-08-30T14:30:41;1.93;;;1.83;;
18286;SDS011;9269;50.838;12.094;2023-08-30T14:33:11;2.50;;;2.30;;
18286;SDS011;9269;50.838;12.094;2023-08-30T14:35:41;2.20;;;2.00;;
18286;SDS011;9269;50.838;12.094;2023-08-30T14:38:10;2.43;;;2.23;;
18286;SDS011;9269;50.838;12.094;2023-08-30T14:40:40;2.33;;;2.13;;
18286;SDS011;9269;50.838;12.094;2023-08-30T14:43:09;2.63;;;2.27;;
18286;SDS011;9269;50.838;12.094;2023-08-30T14:45:39;2.10;;;1.90;;
18286;SDS011;9269;50.838;12.094;2023-08-30T14:48:08;4.80;;;2.70;;
18286;SDS011;9269;50.838;12.094;2023-08-30T14:50:40;2.20;;;2.10;;
18286;SDS011;9269;50.838;12.094;2023-08-30T14:53:12;2.27;;;2.07;;
18286;SDS011;9269;50.838;12.094;2023-08-30T14:55:43;2.57;;;2.37;;
18286;SDS011;9269;50.838;12.094;2023-08-30T14:58:13;3.77;;;3.00;;
18286;SDS011;9269;50.838;12.094;2023-08-30T15:00:43;2.97;;;2.70;;
18286;SDS011;9269;50.838;12.094;2023-08-30T15:03:15;3.27;;;2.97;;
18286;SDS011;9269;50.838;12.094;2023-08-30T15:05:44;3.60;;;3.07;;
18286;SDS011;9269;50.838;12.094;2023-08-30T15:08:21;4.20;;;3.80;;
18286;SDS011;9269;50.838;12.094;2023-08-30T15:10:50;2.73;;;2.53;;
18286;SDS011;9269;50.838;12.094;2023-08-30T15:13:21;9.97;;;5.87;;
18286;SDS011;9269;50.838;12.094;2023-08-30T15:15:51;6.50;;;4.00;;
18286;SDS011;9269;50.838;12.094;2023-08-30T15:18:22;6.27;;;4.30;;
18286;SDS011;9269;50.838;12.094;2023-08-30T15:20:59;18.17;;;8.30;;